Time;durP1;ratioP1;P1;durP2;ratioP2;P2;SDS_P1;SDS_P2;PMS_P1;PMS_P2;Temp;Humidity;BMP_temperature;BMP_pressure;BME280_temperature;BME280_humidity;BME280_pressure;Samples;Min_cycle;Max_cycle;Signal;HPM_P1;HPM_P2
2022/05/12 00:01:50;;;;;;;14.85;6.95;;;;;;;15.62;82.28;100154.13;6224051;28;20060;-75
2022/05/12 00:04:51;;;;;;;11.52;6.43;;;;;;;15.53;82.34;100152.25;6207273;28;20048;-75
2022/05/12 00:07:52;;;;;;;10.82;6.65;;;;;;;15.59;83.38;100153.56;6207161;28;20138;-75
2022/05/12 00:10:53;;;;;;;12.75;7.05;;;;;;;15.56;84.20;100154.63;6207377;28;20046;-76
2022/05/12 00:13:54;;;;;;;16.25;7.70;;;;;;;15.50;84.71;100160.38;6224761;28;20135;-75
2022/05/12 00:16:58;;;;;;;13.48;6.97;;;;;;;15.46;85.87;100154.56;6190791;28;20453;-75
2022/05/12 00:20:00;;;;;;;10.27;6.72;;;;;;;15.48;85.99;100152.63;6223183;28;20057;-75
2022/05/12 00:23:16;;;;;;;9.70;6.90;;;;;;;15.50;86.38;100155.13;6206961;28;20498;-75
2022/05/12 00:26:17;;;;;;;11.73;7.80;;;;;;;15.46;87.41;100148.44;6224498;28;20037;-76
2022/05/12 00:29:18;;;;;;;13.48;7.63;;;;;;;15.50;86.90;100149.84;6223200;28;20041;-75
2022/05/12 00:32:19;;;;;;;13.73;7.73;;;;;;;15.43;88.88;100141.63;6223127;28;20046;-75
2022/05/12 00:35:20;;;;;;;11.65;7.53;;;;;;;15.36;90.42;100135.22;6222975;28;20045;-75
2022/05/12 00:38:21;;;;;;;16.10;8.00;;;;;;;15.31;91.10;100135.56;6222985;28;20057;-75
2022/05/12 00:41:22;;;;;;;12.77;7.75;;;;;;;15.21;93.31;100136.41;6206369;28;20108;-75
2022/05/12 00:44:23;;;;;;;13.23;8.05;;;;;;;15.18;93.63;100141.94;6222603;28;20434;-75
2022/05/12 00:47:23;;;;;;;13.40;8.10;;;;;;;15.15;94.82;100139.53;6222468;28;20084;-75
2022/05/12 00:50:39;;;;;;;10.63;8.45;;;;;;;15.14;94.99;100143.13;6206245;28;20085;-75
2022/05/12 00:53:41;;;;;;;12.27;7.88;;;;;;;15.11;95.74;100141.53;6223830;28;20434;-75
2022/05/12 00:56:44;;;;;;;15.20;8.35;;;;;;;15.07;97.09;100134.84;6223801;28;20180;-75
2022/05/12 00:59:45;;;;;;;25.02;8.90;;;;;;;15.03;96.81;100139.53;6222884;28;20052;-75
2022/05/12 01:02:49;;;;;;;15.68;8.73;;;;;;;14.95;98.10;100134.06;6221667;28;20129;-76
2022/05/12 01:05:50;;;;;;;15.73;8.90;;;;;;;14.98;98.05;100135.59;6222467;28;20050;-73
2022/05/12 01:08:51;;;;;;;16.35;9.13;;;;;;;14.96;99.08;100129.63;6223274;28;20373;-73
2022/05/12 01:11:52;;;;;;;25.13;8.93;;;;;;;14.96;99.22;100133.09;6223061;28;20474;-73
2022/05/12 01:14:53;;;;;;;15.10;8.10;;;;;;;14.96;98.89;100132.25;6222096;28;20374;-73
2022/05/12 01:18:17;;;;;;;14.63;8.60;;;;;;;14.89;99.19;100137.97;6222012;28;20045;-73
2022/05/12 01:21:18;;;;;;;14.00;8.48;;;;;;;14.82;99.92;100144.66;6223153;28;20626;-74
2022/05/12 01:24:22;;;;;;;11.90;8.30;;;;;;;14.90;99.42;100144.91;6221961;28;20057;-75
2022/05/12 01:27:23;;;;;;;11.95;7.90;;;;;;;14.83;100.00;100143.72;6221723;28;20048;-73
2022/05/12 01:30:25;;;;;;;19.58;10.02;;;;;;;14.71;100.00;100147.28;6205630;28;20513;-74
2022/05/12 01:33:27;;;;;;;13.60;8.35;;;;;;;14.73;100.00;100160.31;6222872;28;20069;-72
2022/05/12 01:36:28;;;;;;;10.05;8.20;;;;;;;14.78;100.00;100156.34;6221794;28;20082;-73
2022/05/12 01:39:29;;;;;;;11.65;8.15;;;;;;;14.65;100.00;100151.22;6222961;28;20045;-75
2022/05/12 01:42:30;;;;;;;16.92;7.90;;;;;;;14.62;100.00;100155.84;6173191;28;20073;-73
2022/05/12 01:45:31;;;;;;;10.52;7.88;;;;;;;14.56;100.00;100153.69;6205191;28;20058;-75
2022/05/12 01:48:32;;;;;;;15.23;8.00;;;;;;;14.60;100.00;100156.00;6221594;28;20061;-75
2022/05/12 01:51:35;;;;;;;12.82;8.07;;;;;;;14.65;100.00;100160.88;6221782;28;20050;-75
2022/05/12 01:54:36;;;;;;;10.68;8.25;;;;;;;14.50;100.00;100154.97;6222893;28;20049;-75
2022/05/12 01:57:37;;;;;;;14.18;8.00;;;;;;;14.56;100.00;100153.69;6188989;28;20060;-75
2022/05/12 02:00:38;;;;;;;10.23;8.10;;;;;;;14.55;100.00;100152.84;6221483;28;20049;-75
2022/05/12 02:03:39;;;;;;;12.48;8.27;;;;;;;14.51;100.00;100141.72;6223060;28;20065;-75
2022/05/12 02:06:41;;;;;;;9.27;6.75;;;;;;;14.58;100.00;100155.28;6222756;28;20486;-76
2022/05/12 02:09:42;;;;;;;10.57;6.90;;;;;;;14.55;100.00;100146.75;6222715;28;20046;-75
2022/05/12 02:12:42;;;;;;;11.80;7.70;;;;;;;14.46;100.00;100143.03;6222555;28;20077;-75
2022/05/12 02:15:44;;;;;;;10.75;7.40;;;;;;;14.43;100.00;100152.00;6205315;28;20046;-75
2022/05/12 02:18:45;;;;;;;13.90;7.85;;;;;;;14.38;100.00;100141.00;6204796;28;20057;-75
2022/05/12 02:21:45;;;;;;;12.77;6.97;;;;;;;14.43;100.00;100153.75;6204394;28;20049;-75
2022/05/12 02:24:46;;;;;;;13.70;6.85;;;;;;;14.40;100.00;100143.50;6208725;28;20045;-75
2022/05/12 02:27:48;;;;;;;14.40;7.88;;;;;;;14.32;100.00;100154.56;6227052;28;20526;-75
2022/05/12 02:30:49;;;;;;;10.98;7.55;;;;;;;14.24;100.00;100156.94;6225952;28;20120;-75
2022/05/12 02:33:50;;;;;;;13.10;7.38;;;;;;;14.29;100.00;100158.28;6226834;28;20509;-73
2022/05/12 02:37:03;;;;;;;11.02;7.43;;;;;;;14.24;100.00;100160.38;6209474;28;20049;-73
2022/05/12 02:40:05;;;;;;;10.93;7.57;;;;;;;14.31;100.00;100155.53;6210710;28;20057;-73
2022/05/12 02:43:25;;;;;;;9.85;7.35;;;;;;;14.32;100.00;100163.28;6225614;28;20112;-75
2022/05/12 02:46:25;;;;;;;10.50;7.07;;;;;;;14.39;100.00;100163.69;6226702;28;20074;-75
2022/05/12 02:49:26;;;;;;;14.25;6.95;;;;;;;14.37;100.00;100164.72;6225351;28;20065;-76
2022/05/12 02:52:27;;;;;;;18.08;7.63;;;;;;;14.38;100.00;100161.16;6209223;28;20061;-75
2022/05/12 02:55:28;;;;;;;10.02;6.97;;;;;;;14.25;100.00;100164.69;6192906;28;20053;-76
2022/05/12 02:58:30;;;;;;;12.60;7.18;;;;;;;14.25;100.00;100163.88;6226507;28;20046;-75
2022/05/12 03:01:31;;;;;;;10.32;6.75;;;;;;;14.30;100.00;100159.94;6225225;28;20038;-76
2022/05/12 03:04:33;;;;;;;11.70;7.15;;;;;;;14.32;100.00;100168.53;6225023;28;20092;-75
2022/05/12 03:07:34;;;;;;;9.85;7.07;;;;;;;14.24;100.00;100162.19;6241450;28;20049;-75
2022/05/12 03:10:35;;;;;;;13.38;7.28;;;;;;;14.18;100.00;100160.00;6226013;28;20501;-76
2022/05/12 03:13:36;;;;;;;9.38;6.80;;;;;;;14.18;100.00;100160.84;6224997;28;20050;-76
2022/05/12 03:16:37;;;;;;;11.02;7.05;;;;;;;14.20;100.00;100166.81;6224626;28;20053;-73
2022/05/12 03:19:38;;;;;;;15.23;8.43;;;;;;;14.17;100.00;100171.47;6240932;28;20117;-73
2022/05/12 03:22:39;;;;;;;12.55;7.85;;;;;;;14.19;100.00;100177.44;6207968;28;20056;-73
2022/05/12 03:25:43;;;;;;;12.20;7.90;;;;;;;14.18;100.00;100171.34;6224278;28;20065;-73
2022/05/12 03:28:44;;;;;;;15.25;7.57;;;;;;;14.19;100.00;100178.28;6224383;28;20056;-73
2022/05/12 03:31:45;;;;;;;16.98;7.32;;;;;;;14.22;100.00;100179.84;6225770;28;20038;-74
2022/05/12 03:34:46;;;;;;;11.80;7.70;;;;;;;14.21;100.00;100171.13;6225361;28;20050;-73
2022/05/12 03:37:47;;;;;;;13.55;7.55;;;;;;;14.22;100.00;100174.59;6224123;28;20462;-73
2022/05/12 03:40:48;;;;;;;12.52;7.30;;;;;;;14.24;100.00;100188.44;6207763;28;20052;-73
2022/05/12 03:47:08;;;;;;;11.60;7.40;;;;;;;14.26;100.00;100183.91;6223390;28;20065;-73
2022/05/12 03:50:13;;;;;;;11.23;7.93;;;;;;;14.17;100.00;100185.44;6223961;28;20049;-73
2022/05/12 03:53:14;;;;;;;16.38;7.65;;;;;;;14.15;100.00;100187.31;6223956;28;20487;-72
2022/05/12 03:56:15;;;;;;;13.52;8.02;;;;;;;14.24;100.00;100185.81;6223665;28;20060;-73
2022/05/12 03:59:15;;;;;;;13.80;8.40;;;;;;;14.26;100.00;100189.16;6224767;28;20049;-73
2022/05/12 04:02:18;;;;;;;21.77;8.27;;;;;;;14.31;100.00;100190.50;6206877;28;20414;-73
2022/05/12 04:05:20;;;;;;;12.15;8.10;;;;;;;14.26;100.00;100199.66;6223038;28;20054;-73
2022/05/12 04:08:21;;;;;;;11.02;8.00;;;;;;;14.34;100.00;100193.84;6223260;28;20054;-73
2022/05/12 04:11:23;;;;;;;11.73;7.97;;;;;;;14.42;100.00;100201.97;6223375;28;20053;-73
2022/05/12 04:14:24;;;;;;;11.63;8.07;;;;;;;14.35;100.00;100206.84;6227139;28;20038;-74
2022/05/12 04:17:25;;;;;;;13.60;8.35;;;;;;;14.37;100.00;100204.97;6225897;28;20505;-73
2022/05/12 04:20:28;;;;;;;14.02;8.30;;;;;;;14.43;100.00;100207.13;6206641;28;20061;-73
2022/05/12 04:23:28;;;;;;;13.60;7.88;;;;;;;14.57;100.00;100216.59;6224459;28;20041;-73
2022/05/12 04:26:29;;;;;;;15.15;7.78;;;;;;;14.60;100.00;100216.38;6239282;28;20058;-73
2022/05/12 04:29:30;;;;;;;13.10;7.57;;;;;;;14.73;100.00;100225.97;6245357;28;20056;-73
2022/05/12 04:32:31;;;;;;;15.07;8.00;;;;;;;14.77;100.00;100222.16;6247428;28;20049;-73
2022/05/12 04:35:32;;;;;;;11.15;8.02;;;;;;;14.79;100.00;100213.19;6214955;28;20120;-73
2022/05/12 04:38:34;;;;;;;12.30;7.60;;;;;;;14.87;100.00;100228.38;6213579;28;20498;-73
2022/05/12 04:41:35;;;;;;;17.23;8.18;;;;;;;14.90;100.00;100223.72;6235349;28;20071;-73
2022/05/12 04:44:36;;;;;;;18.02;8.23;;;;;;;15.07;100.00;100219.81;6237911;28;20505;-73
2022/05/12 04:47:39;;;;;;;9.23;7.32;;;;;;;15.12;98.86;100222.06;6218972;28;20058;-73
2022/05/12 04:50:40;;;;;;;11.35;7.45;;;;;;;15.18;98.51;100218.97;6221718;28;20042;-73
2022/05/12 04:53:41;;;;;;;18.40;8.05;;;;;;;15.29;96.36;100228.66;6222042;28;20042;-73
2022/05/12 04:56:42;;;;;;;13.40;7.85;;;;;;;15.31;97.06;100224.94;6204471;28;20052;-73
2022/05/12 04:59:43;;;;;;;11.23;7.10;;;;;;;15.44;95.83;100227.47;6236884;28;20050;-73
2022/05/12 05:02:44;;;;;;;12.57;8.13;;;;;;;15.50;94.12;100226.97;6221933;28;20152;-73
2022/05/12 05:05:45;;;;;;;14.50;7.38;;;;;;;15.58;94.03;100230.78;6204839;28;20424;-73
2022/05/12 05:08:46;;;;;;;14.45;7.65;;;;;;;15.64;94.59;100239.00;6221239;28;20422;-73
2022/05/12 05:11:47;;;;;;;13.27;7.15;;;;;;;15.72;93.27;100233.19;6237614;28;20132;-73
2022/05/12 05:14:47;;;;;;;10.55;7.20;;;;;;;15.87;92.92;100236.38;6237548;28;20054;-72
2022/05/12 05:17:48;;;;;;;12.75;6.95;;;;;;;15.97;91.76;100233.84;6220995;28;20049;-73
2022/05/12 05:20:50;;;;;;;9.18;6.57;;;;;;;16.04;90.96;100235.00;6222644;28;20176;-73
2022/05/12 05:23:51;;;;;;;13.43;7.10;;;;;;;16.19;90.75;100235.59;6226285;28;20091;-73
2022/05/12 05:26:51;;;;;;;9.43;6.38;;;;;;;16.28;90.50;100238.28;6232212;28;20033;-73
2022/05/12 05:29:52;;;;;;;13.07;6.60;;;;;;;16.40;87.87;100240.88;6221105;28;20114;-73
2022/05/12 05:32:54;;;;;;;11.07;6.45;;;;;;;16.53;86.45;100246.78;6204593;28;20621;-73
2022/05/12 05:35:57;;;;;;;12.40;6.50;;;;;;;16.61;86.05;100246.16;6221264;28;20042;-73
2022/05/12 05:38:58;;;;;;;10.80;6.82;;;;;;;16.77;85.15;100248.34;6221347;28;20445;-73
2022/05/12 05:42:12;;;;;;;10.27;6.88;;;;;;;16.80;83.13;100243.66;6220753;28;20054;-73
2022/05/12 05:45:16;;;;;;;15.07;6.88;;;;;;;16.99;84.04;100250.06;6246486;28;20057;-74
2022/05/12 05:48:17;;;;;;;11.00;6.13;;;;;;;17.13;81.90;100244.41;6246529;28;20049;-73
2022/05/12 05:54:37;;;;;;;11.48;6.20;;;;;;;17.40;79.99;100249.13;6245292;28;20054;-73
2022/05/12 05:57:38;;;;;;;10.88;6.15;;;;;;;17.51;80.22;100256.94;6249013;28;20044;-73
2022/05/12 06:00:39;;;;;;;14.30;6.32;;;;;;;17.62;78.34;100250.72;6266760;28;20421;-73
2022/05/12 06:03:40;;;;;;;13.47;6.60;;;;;;;17.79;77.97;100256.31;6250200;28;20532;-74
2022/05/12 06:06:42;;;;;;;13.93;6.43;;;;;;;17.84;73.89;100257.63;6249920;28;20050;-74
2022/05/12 06:09:43;;;;;;;14.43;6.30;;;;;;;18.01;75.34;100263.22;6251310;28;20100;-76
2022/05/12 06:12:44;;;;;;;17.67;6.38;;;;;;;18.21;74.14;100259.63;6266511;28;20201;-73
2022/05/12 06:15:45;;;;;;;7.72;5.40;;;;;;;18.35;73.38;100260.22;6261345;28;20096;-74
2022/05/12 06:18:47;;;;;;;7.00;5.40;;;;;;;18.50;71.43;100259.63;6192912;28;20486;-73
2022/05/12 06:21:49;;;;;;;9.45;5.20;;;;;;;18.70;69.45;100268.38;6209079;28;20049;-73
2022/05/12 06:24:50;;;;;;;8.40;5.18;;;;;;;18.82;69.83;100269.09;6241625;28;20393;-73
2022/05/12 06:27:51;;;;;;;15.23;5.68;;;;;;;18.90;65.93;100268.38;6208708;28;20054;-73
2022/05/12 06:30:52;;;;;;;7.40;4.72;;;;;;;19.11;66.71;100263.75;6224906;28;20057;-73
2022/05/12 06:33:54;;;;;;;9.82;5.20;;;;;;;19.24;65.03;100265.25;6224916;28;20062;-74
2022/05/12 06:36:56;;;;;;;9.45;4.80;;;;;;;19.37;64.18;100263.09;6224842;28;20076;-72
2022/05/12 06:39:57;;;;;;;6.70;4.40;;;;;;;19.48;64.04;100262.09;6208572;28;20483;-73
2022/05/12 06:42:58;;;;;;;8.77;5.03;;;;;;;19.66;64.01;100259.47;6208250;28;20053;-73
2022/05/12 06:45:59;;;;;;;11.13;4.88;;;;;;;19.76;62.51;100265.59;6224536;28;20432;-73
2022/05/12 06:49:02;;;;;;;7.85;5.07;;;;;;;19.98;60.77;100263.53;6176398;28;20115;-73
2022/05/12 06:52:05;;;;;;;8.00;4.55;;;;;;;20.08;61.33;100265.13;6208466;28;20467;-74
2022/05/12 06:55:07;;;;;;;8.45;4.35;;;;;;;20.27;62.73;100264.13;6225311;28;20045;-77
2022/05/12 06:58:10;;;;;;;9.68;4.60;;;;;;;20.36;58.98;100261.56;6208228;28;20050;-74
2022/05/12 07:01:11;;;;;;;8.15;4.63;;;;;;;20.42;60.12;100256.47;6224027;28;20057;-73
2022/05/12 07:04:12;;;;;;;10.10;4.13;;;;;;;20.69;60.03;100257.38;6224215;28;20065;-73
2022/05/12 07:07:13;;;;;;;7.32;4.07;;;;;;;20.87;59.49;100260.84;6207827;28;20072;-73
2022/05/12 07:10:15;;;;;;;8.90;4.40;;;;;;;21.00;58.73;100254.28;6223355;28;20050;-73
2022/05/12 07:13:20;;;;;;;9.05;3.85;;;;;;;21.18;60.86;100256.88;6223902;28;20068;-74
2022/05/12 07:16:21;;;;;;;8.57;4.35;;;;;;;21.34;58.18;100256.97;6225223;28;20042;-74
2022/05/12 07:19:22;;;;;;;10.47;4.57;;;;;;;21.58;58.48;100255.44;6225102;28;20100;-73
2022/05/12 07:29:09;;;;;;;12.70;4.00;;;;;;;21.96;54.06;100259.38;6196143;28;20096;-73
2022/05/12 07:32:11;;;;;;;11.23;4.20;;;;;;;22.12;53.78;100258.59;6223484;28;20418;-77
2022/05/12 07:35:12;;;;;;;9.35;4.20;;;;;;;22.40;54.61;100264.44;6223746;28;20395;-77
2022/05/12 07:38:12;;;;;;;10.57;3.75;;;;;;;22.58;53.06;100266.94;6207387;28;20406;-76
2022/05/12 07:41:16;;;;;;;16.30;4.00;;;;;;;22.56;52.14;100262.81;6223315;28;20046;-76
2022/05/12 07:44:19;;;;;;;7.13;3.75;;;;;;;22.71;51.81;100258.47;6239652;28;20050;-76
2022/05/12 07:47:21;;;;;;;6.30;3.30;;;;;;;23.05;51.97;100257.47;6207246;28;20076;-76
2022/05/12 07:50:22;;;;;;;11.25;3.58;;;;;;;23.38;52.34;100247.53;6197427;28;20049;-77
2022/05/12 07:53:23;;;;;;;6.78;4.35;;;;;;;23.44;49.23;100254.03;6229698;28;20045;-77
2022/05/12 07:56:26;;;;;;;8.43;3.58;;;;;;;23.50;48.60;100256.00;6213617;28;20077;-78
2022/05/12 07:59:31;;;;;;;6.95;3.63;;;;;;;23.52;49.40;100248.66;6229668;28;20057;-77
2022/05/12 08:02:32;;;;;;;5.78;3.85;;;;;;;23.77;49.73;100251.25;6229981;28;20069;-76
2022/05/12 08:05:34;;;;;;;5.90;3.65;;;;;;;23.72;48.78;100251.72;6229242;28;20553;-77
2022/05/12 08:08:35;;;;;;;6.70;3.70;;;;;;;23.87;49.28;100249.19;6213172;28;20072;-77
2022/05/12 08:11:36;;;;;;;10.18;3.70;;;;;;;24.18;49.59;100248.31;6229051;28;20084;-77
2022/05/12 08:14:37;;;;;;;7.18;3.45;;;;;;;24.37;49.47;100250.50;6245752;28;20061;-74
2022/05/12 08:17:38;;;;;;;7.47;3.90;;;;;;;24.37;47.02;100255.00;6229102;28;20077;-74
2022/05/12 08:20:39;;;;;;;4.67;3.30;;;;;;;24.47;48.38;100252.94;6253911;28;20056;-74
2022/05/12 08:23:40;;;;;;;6.90;4.00;;;;;;;24.66;47.23;100255.13;6206037;28;20708;-74
2022/05/12 08:26:42;;;;;;;9.20;3.72;;;;;;;24.93;47.37;100251.03;6173979;28;20530;-73
2022/05/12 08:29:44;;;;;;;5.53;3.55;;;;;;;25.13;46.33;100250.50;6206178;28;20525;-74
2022/05/12 08:32:45;;;;;;;6.97;3.20;;;;;;;25.14;44.61;100247.63;6205875;28;20054;-74
2022/05/12 08:35:47;;;;;;;13.70;3.80;;;;;;;25.25;43.57;100245.56;6189568;28;20053;-74
2022/05/12 08:38:48;;;;;;;6.05;3.42;;;;;;;25.47;43.54;100231.25;6238355;28;20499;-74
2022/05/12 08:41:55;;;;;;;8.68;3.50;;;;;;;25.42;42.90;100230.16;6238492;28;20117;-73
2022/05/12 08:44:59;;;;;;;12.77;3.60;;;;;;;25.58;42.08;100226.47;6221783;28;20050;-74
2022/05/12 08:48:01;;;;;;;16.05;3.75;;;;;;;25.82;42.41;100225.28;6254731;28;20081;-74
2022/05/12 08:51:02;;;;;;;7.90;3.33;;;;;;;26.08;43.04;100224.75;6238304;28;20104;-77
2022/05/12 08:54:12;;;;;;;8.85;3.47;;;;;;;26.22;40.58;100226.53;6205451;28;20046;-77
2022/05/12 08:57:32;;;;;;;11.38;3.35;;;;;;;26.16;40.96;100211.25;6221678;28;20057;-77
2022/05/12 09:01:00;;;;;;;6.03;3.00;;;;;;;26.32;39.71;100208.31;6221893;28;20044;-78
2022/05/12 09:04:44;;;;;;;6.22;2.65;;;;;;;26.41;39.38;100218.88;6205026;28;20465;-78
2022/05/12 09:07:58;;;;;;;10.93;3.20;;;;;;;26.59;38.50;100205.88;6205150;28;20549;-78
2022/05/12 09:11:17;;;;;;;11.27;3.35;;;;;;;26.56;38.87;100208.09;6221637;28;20521;-78
2022/05/12 09:14:47;;;;;;;8.02;3.28;;;;;;;26.79;39.17;100206.03;6205005;28;20417;-78
2022/05/12 09:17:58;;;;;;;16.52;3.42;;;;;;;26.86;37.30;100214.09;6224051;28;20076;-74
2022/05/12 09:21:03;;;;;;;7.43;2.90;;;;;;;27.16;36.45;100212.00;6263901;28;20465;-74
2022/05/12 09:24:05;;;;;;;11.75;3.00;;;;;;;27.00;35.90;100210.47;6220928;28;20049;-74
2022/05/12 09:27:12;;;;;;;11.45;3.00;;;;;;;27.20;36.05;100213.28;6224100;28;20034;-74
2022/05/12 09:30:13;;;;;;;12.18;3.15;;;;;;;27.45;36.41;100213.63;6224795;28;20038;-77
2022/05/12 09:33:24;;;;;;;7.65;3.00;;;;;;;27.77;35.48;100208.53;6245247;28;20045;-77
2022/05/12 09:36:28;;;;;;;7.95;2.63;;;;;;;28.01;35.04;100203.69;6235611;28;20057;-77
2022/05/12 09:40:18;;;;;;;7.22;2.75;;;;;;;27.97;33.58;100203.25;6241479;28;20045;-77
2022/05/12 09:43:32;;;;;;;13.60;3.13;;;;;;;28.19;34.09;100197.69;6222453;28;20054;-78
2022/05/12 09:46:33;;;;;;;3.63;2.60;;;;;;;27.83;33.41;100194.34;6237425;28;20081;-77
2022/05/12 09:49:38;;;;;;;11.02;2.85;;;;;;;28.10;34.63;100194.41;6204844;28;20042;-78
2022/05/12 09:52:40;;;;;;;8.88;2.88;;;;;;;28.11;34.06;100190.69;6236700;28;20037;-78
2022/05/12 09:55:56;;;;;;;8.82;3.03;;;;;;;28.03;33.70;100194.41;6245265;28;20064;-73
2022/05/12 09:59:13;;;;;;;7.75;2.78;;;;;;;28.31;35.23;100186.16;6246744;28;20046;-74
2022/05/12 10:09:28;;;;;;;9.05;3.20;;;;;;;28.45;32.53;100186.97;6220682;28;20070;-78
2022/05/12 10:12:54;;;;;;;5.88;2.83;;;;;;;28.60;32.97;100180.59;6237074;28;20054;-78
2022/05/12 10:15:57;;;;;;;10.60;3.17;;;;;;;28.59;33.17;100177.09;6220848;28;20057;-78
2022/05/12 10:19:05;;;;;;;6.15;2.67;;;;;;;28.73;32.15;100173.34;6226492;28;20111;-79
2022/05/12 10:22:28;;;;;;;6.85;2.90;;;;;;;29.12;32.51;100179.66;6228943;28;20084;-78
2022/05/12 10:25:58;;;;;;;6.10;2.88;;;;;;;28.93;31.83;100173.31;6215237;28;20510;-79
2022/05/12 10:29:21;;;;;;;5.38;2.60;;;;;;;28.85;32.68;100165.47;6242073;28;20049;-78
2022/05/12 10:32:59;;;;;;;16.38;3.10;;;;;;;29.05;31.36;100176.13;6267104;28;20137;-78
2022/05/12 10:36:06;;;;;;;6.97;2.88;;;;;;;29.02;30.91;100167.69;6219648;28;20136;-74
2022/05/12 10:39:28;;;;;;;9.90;3.10;;;;;;;29.42;31.21;100164.84;6227650;28;20048;-74
2022/05/12 10:42:58;;;;;;;12.70;3.22;;;;;;;29.31;30.20;100161.00;6249945;28;20053;-74
2022/05/12 10:46:11;;;;;;;11.73;2.92;;;;;;;29.52;30.40;100163.34;6236943;28;20570;-74
2022/05/12 10:49:23;;;;;;;7.13;2.90;;;;;;;29.66;30.03;100153.34;6212807;28;20057;-74
2022/05/12 10:52:51;;;;;;;9.07;2.53;;;;;;;29.40;30.25;100148.13;6224487;28;20046;-74
2022/05/12 10:55:55;;;;;;;3.47;2.47;;;;;;;29.24;30.63;100146.75;6208056;28;20049;-79
2022/05/12 10:59:37;;;;;;;16.67;2.67;;;;;;;29.56;31.08;100149.50;6208402;28;20136;-78
2022/05/12 11:02:42;;;;;;;8.00;2.40;;;;;;;29.54;30.10;100128.19;6240704;28;20089;-79
2022/05/12 11:05:48;;;;;;;9.80;3.17;;;;;;;29.81;29.30;100136.13;6208046;28;20046;-78
2022/05/12 11:08:54;;;;;;;7.28;2.70;;;;;;;29.79;29.62;100122.06;6224647;28;20049;-78
2022/05/12 11:12:01;;;;;;;4.50;2.55;;;;;;;29.88;29.18;100126.16;6240790;28;20506;-78
2022/05/12 11:15:11;;;;;;;8.27;2.90;;;;;;;29.98;30.04;100117.56;6224047;28;20088;-78
2022/05/12 11:18:22;;;;;;;5.70;2.75;;;;;;;29.89;28.71;100115.16;6228227;28;20057;-78
2022/05/12 11:21:28;;;;;;;6.30;2.65;;;;;;;30.13;28.79;100112.69;6227972;28;20038;-78
2022/05/12 11:24:40;;;;;;;7.05;2.60;;;;;;;29.93;29.45;100118.22;6223808;28;20057;-79
2022/05/12 11:29:41;;;;;;;4.00;2.50;;;;;;;30.00;28.85;100116.31;6240401;28;20057;-78
2022/05/12 11:31:43;;;;;;;10.60;2.67;;;;;;;30.06;29.56;100104.69;6240022;28;20128;-79
2022/05/12 11:34:48;;;;;;;12.23;2.88;;;;;;;30.55;30.13;100106.72;6264857;28;20041;-79
2022/05/12 11:37:50;;;;;;;16.85;3.13;;;;;;;30.50;28.22;100105.53;6266341;28;20069;-78
2022/05/12 11:40:53;;;;;;;8.85;2.72;;;;;;;30.51;29.17;100087.50;6224838;28;20089;-79
2022/05/12 11:44:24;;;;;;;6.63;2.90;;;;;;;30.65;28.62;100085.47;6256382;28;20127;-78
2022/05/12 11:47:46;;;;;;;9.30;2.58;;;;;;;30.60;27.48;100090.69;6224589;28;20050;-79
2022/05/12 11:51:02;;;;;;;7.18;2.60;;;;;;;30.63;28.12;100090.28;6239640;28;20414;-79
2022/05/12 11:54:10;;;;;;;8.05;2.88;;;;;;;30.46;27.85;100076.59;6224269;28;20050;-79
2022/05/12 11:57:31;;;;;;;6.80;2.90;;;;;;;30.45;28.13;100073.06;6224271;28;20096;-78
2022/05/12 12:00:35;;;;;;;8.32;2.63;;;;;;;30.80;28.31;100069.75;6239464;28;20103;-78
2022/05/12 12:03:46;;;;;;;11.00;2.58;;;;;;;30.25;28.31;100067.88;6223639;28;20050;-79
2022/05/12 12:06:49;;;;;;;9.17;2.60;;;;;;;30.24;28.57;100071.59;6224073;28;20048;-78
2022/05/12 12:09:55;;;;;;;8.82;2.40;;;;;;;30.36;28.23;100062.81;6206668;28;20065;-79
2022/05/12 12:13:04;;;;;;;16.05;2.60;;;;;;;30.57;27.50;100059.69;6246758;28;20108;-78
2022/05/12 12:16:10;;;;;;;6.10;2.33;;;;;;;30.71;28.09;100053.09;6244267;28;20049;-78
2022/05/12 12:19:40;;;;;;;7.60;2.50;;;;;;;30.58;27.62;100061.34;6210757;28;20053;-78
2022/05/12 12:22:52;;;;;;;5.93;2.50;;;;;;;30.46;27.30;100057.75;6222496;28;20050;-79
2022/05/12 12:26:00;;;;;;;3.53;2.28;;;;;;;30.77;28.36;100050.56;6222092;28;20141;-78
2022/05/12 12:29:19;;;;;;;5.38;2.42;;;;;;;30.64;27.76;100046.13;6239032;28;20073;-78
2022/05/12 12:32:34;;;;;;;7.78;2.78;;;;;;;30.59;27.57;100044.13;6222156;28;20203;-79
2022/05/12 12:36:12;;;;;;;8.80;3.00;;;;;;;30.70;28.11;100043.38;6238465;28;20501;-79
2022/05/12 12:39:40;;;;;;;5.75;2.88;;;;;;;30.53;28.11;100051.22;6222069;28;20481;-78
2022/05/12 12:42:45;;;;;;;6.95;2.70;;;;;;;30.39;27.31;100038.97;6223188;28;20049;-78
2022/05/12 12:45:52;;;;;;;7.93;2.53;;;;;;;30.57;28.04;100035.44;6221701;28;20056;-78
2022/05/12 12:49:01;;;;;;;7.28;2.80;;;;;;;30.37;28.09;100035.66;6222240;28;20061;-78
2022/05/12 12:52:06;;;;;;;10.55;2.83;;;;;;;30.46;27.87;100037.03;6221833;28;20065;-78
2022/05/12 12:58:47;;;;;;;4.47;2.60;;;;;;;30.55;28.79;100021.38;6222978;28;20041;-78
2022/05/12 13:01:55;;;;;;;10.70;2.63;;;;;;;30.49;27.96;100028.50;6237994;28;20060;-78
2022/05/12 13:04:58;;;;;;;17.63;3.03;;;;;;;30.66;27.79;100015.25;6221296;28;20273;-79
2022/05/12 13:08:08;;;;;;;10.38;2.47;;;;;;;30.28;29.41;100013.59;6222152;28;20038;-77
2022/05/12 13:11:18;;;;;;;6.95;2.90;;;;;;;30.44;29.03;100020.28;6223362;28;20045;-78
2022/05/12 13:14:21;;;;;;;13.52;2.70;;;;;;;30.19;27.61;100016.81;6221363;28;20506;-78
2022/05/12 13:17:39;;;;;;;15.32;3.03;;;;;;;29.99;28.74;100014.31;6205175;28;20042;-78
2022/05/12 13:20:42;;;;;;;20.50;3.17;;;;;;;30.17;29.51;100005.47;6221467;28;20413;-78
2022/05/12 13:23:58;;;;;;;13.85;3.00;;;;;;;30.23;28.92;99999.16;6222474;28;20053;-78
2022/05/12 13:27:00;;;;;;;10.27;2.63;;;;;;;30.06;28.14;100004.31;6221158;28;20041;-78
2022/05/12 13:30:12;;;;;;;15.98;3.17;;;;;;;29.77;29.34;99989.72;6204978;28;20050;-77
2022/05/12 13:33:24;;;;;;;13.70;3.42;;;;;;;29.88;29.18;99991.69;6222378;28;20045;-78
2022/05/12 13:36:30;;;;;;;6.80;2.70;;;;;;;29.95;29.65;99994.31;6222182;28;20038;-77
2022/05/12 13:39:49;;;;;;;5.75;2.58;;;;;;;29.72;28.93;99988.50;6221126;28;20399;-77
2022/05/12 13:42:55;;;;;;;6.63;2.72;;;;;;;29.60;29.39;99989.41;6222262;28;20437;-77
2022/05/12 13:46:18;;;;;;;14.02;3.35;;;;;;;29.76;29.24;99990.75;6218284;28;20140;-77
2022/05/12 13:49:33;;;;;;;11.15;2.70;;;;;;;29.72;29.09;99979.63;6254396;28;20505;-77
2022/05/12 13:52:45;;;;;;;12.10;3.35;;;;;;;29.62;28.81;99972.03;6245712;28;20040;-78
2022/05/12 13:56:12;;;;;;;12.07;3.28;;;;;;;29.55;29.13;99979.34;6245408;28;20069;-78
2022/05/12 13:59:23;;;;;;;12.77;2.80;;;;;;;29.61;29.78;99980.28;6229120;28;20058;-78
2022/05/12 14:02:33;;;;;;;6.93;2.80;;;;;;;29.63;29.88;99983.59;6231561;28;20055;-78
2022/05/12 14:05:34;;;;;;;7.55;3.08;;;;;;;29.58;29.05;99978.88;6228078;28;20053;-77
2022/05/12 14:08:34;;;;;;;11.15;3.22;;;;;;;29.48;28.95;99974.00;6246457;28;20500;-77
2022/05/12 14:11:35;;;;;;;9.35;3.00;;;;;;;29.36;29.62;99964.19;6242383;28;20115;-77
2022/05/12 14:21:19;;;;;;;9.13;3.15;;;;;;;29.42;29.40;99948.00;6269340;28;20076;-78
2022/05/12 14:24:22;;;;;;;15.57;3.30;;;;;;;29.40;29.47;99939.31;6233228;28;20137;-77
2022/05/12 14:27:23;;;;;;;15.45;2.80;;;;;;;29.35;29.07;99941.88;6233376;28;20050;-77
2022/05/12 14:30:24;;;;;;;11.20;3.80;;;;;;;29.43;29.70;99932.72;6233496;28;21314;-77
2022/05/12 14:33:25;;;;;;;10.77;3.10;;;;;;;29.47;29.49;99939.28;6233262;28;20050;-77
2022/05/12 14:36:26;;;;;;;6.85;3.08;;;;;;;29.36;29.36;99931.94;6233161;28;20103;-77
2022/05/12 14:39:33;;;;;;;11.10;2.83;;;;;;;29.41;29.75;99940.19;6233347;28;20478;-78
2022/05/12 14:42:34;;;;;;;12.82;2.85;;;;;;;29.32;29.03;99927.00;6250798;28;20099;-77
2022/05/12 14:45:35;;;;;;;8.48;2.92;;;;;;;29.42;29.42;99931.88;6210004;28;20041;-77
2022/05/12 14:48:45;;;;;;;11.52;2.88;;;;;;;29.49;29.61;99926.47;6208391;28;20152;-77